Limoges, France

4:07 PM CEST on September 27, 2016 (GMT +0200)
Route des Francines | | Change Station

Elev 1263 ft 45.88 °N, 1.16 °E | Updated 40 seconds ago

Clear
Clear
68.5 °F
Feels Like 68.5 °F
N
1.9
Wind Variable Wind from West
Gusts 4.3 mph

Today
High -- | Low -- °F
--% Chance of Precip.
Yesterday
High -- | Low -- °F
Precip. -- in
Pressure 30.33 in
Visibility -9999.0 miles
Clouds
Dew Point 49 °F
Humidity 50%
Rainfall 0.00 in
Snow Depth Not available.
7:48 AM 7:42 PM
Waning Crescent, 11% visible
METAR LFBL 271400Z AUTO 29004KT 210V350 CAVOK 21/05 Q1027 NOSIG
Pressure 30.33 in
Visibility -9999.0 miles
Clouds
Dew Point 49 °F
Humidity 50%
Rainfall 0.00 in
Snow Depth Not available.
7:48 AM 7:42 PM
Waning Crescent, 11% visible
METAR LFBL 271400Z AUTO 29004KT 210V350 CAVOK 21/05 Q1027 NOSIG

10-Day Weather Forecast

×

Almanac

Astronomy

Sep. 27, 2016 Rise Set
Actual Time
Civil Twilight
Nautical Twilight
Astronomical Twilight
Moon
Length of Visible Light
Length of Day
Tomorrow will be .
, % of the Moon is Illuminated

Today's Extremes

Country Highs Country Lows

Community

WunderPhotos

Upload Photos

1,942,082 photos uploaded!

WunderBlog® & News

Nearby

Air Quality

  Air Quality AQ Index Pollutant
Not available.

Snow Depth

Station Depth Elevation

Earthquake Activity

City Distance Mag. Time & Date
Minimum magnitude displayed is 2.5.

Coastal Water Temperatures

Place Temperature

Stations

Nearby Weather Stations

Station Location Temp. Windchill Dew Point Humidity Wind Precip. Elev Updated Type